createdAt,value
2022-08-27T00:01:42.037Z,97512.03
2022-08-27T00:04:44.587Z,97516.91
2022-08-27T00:07:47.667Z,97522.91
2022-08-27T00:10:49.727Z,97520.22
2022-08-27T00:13:51.917Z,97520.91
2022-08-27T00:16:55.009Z,97520.69
2022-08-27T00:19:57.253Z,97530.97
2022-08-27T00:22:59.292Z,97525.28
2022-08-27T00:26:01.626Z,97518.97
2022-08-27T00:29:03.645Z,97532.16
2022-08-27T00:32:05.708Z,97529.88
2022-08-27T00:35:08.718Z,97530.31
2022-08-27T00:38:10.710Z,97530.50
2022-08-27T00:41:13.803Z,97534.16
2022-08-27T00:44:20.805Z,97540.97
2022-08-27T00:47:24.765Z,97533.56
2022-08-27T00:50:53.921Z,97527.56
2022-08-27T00:53:58.628Z,97520.53
2022-08-27T00:57:01.497Z,97526.31
2022-08-27T01:00:09.635Z,97529.34
2022-08-27T01:03:12.314Z,97526.81
2022-08-27T01:06:16.280Z,97525.78
2022-08-27T01:09:18.766Z,97531.00
2022-08-27T01:12:20.852Z,97531.41
2022-08-27T01:15:26.094Z,97529.72
2022-08-27T01:18:30.333Z,97535.03
2022-08-27T01:21:50.171Z,97533.88
2022-08-27T01:24:58.326Z,97536.72
2022-08-27T01:28:01.105Z,97533.63
2022-08-27T01:31:05.645Z,97534.44
2022-08-27T01:34:07.677Z,97545.97
2022-08-27T01:37:09.824Z,97542.50
2022-08-27T01:40:13.602Z,97547.13
2022-08-27T01:43:18.251Z,97536.66
2022-08-27T01:46:26.554Z,97543.47
2022-08-27T01:49:28.436Z,97535.72
2022-08-27T01:52:31.449Z,97542.28
2022-08-27T01:55:33.519Z,97542.53
2022-08-27T01:58:36.395Z,97537.19
2022-08-27T02:01:39.681Z,97540.66
2022-08-27T02:04:41.698Z,97542.53
2022-08-27T02:07:43.977Z,97539.69
2022-08-27T02:10:47.260Z,97543.31
2022-08-27T02:13:49.520Z,97542.09
2022-08-27T02:16:52.467Z,97546.91
2022-08-27T02:19:55.016Z,97556.41
2022-08-27T02:22:57.988Z,97548.00
2022-08-27T02:25:59.914Z,97554.03
2022-08-27T02:29:01.894Z,97552.06
2022-08-27T02:32:04.091Z,97547.63
2022-08-27T02:35:07.348Z,97538.31
2022-08-27T02:38:10.102Z,97540.31
2022-08-27T02:41:11.994Z,97541.63
2022-08-27T02:44:14.376Z,97532.59
2022-08-27T02:47:16.972Z,97529.28
2022-08-27T02:50:18.827Z,97526.81
2022-08-27T02:53:21.375Z,97529.91
2022-08-27T02:56:26.030Z,97527.47
2022-08-27T02:59:28.139Z,97524.16
2022-08-27T03:02:30.222Z,97529.28
2022-08-27T03:05:32.046Z,97519.84
2022-08-27T03:08:38.013Z,97524.31
2022-08-27T03:11:55.306Z,97526.31
2022-08-27T03:14:57.190Z,97527.97
2022-08-27T03:18:17.862Z,97524.25
2022-08-27T03:21:22.239Z,97532.41
2022-08-27T03:24:24.082Z,97530.00
2022-08-27T03:27:26.339Z,97529.81
2022-08-27T03:30:28.426Z,97527.56
2022-08-27T03:33:37.916Z,97533.84
2022-08-27T03:36:39.854Z,97526.63
2022-08-27T03:39:41.784Z,97528.38
2022-08-27T03:42:43.745Z,97528.38
2022-08-27T03:46:00.466Z,97525.66
2022-08-27T03:49:03.074Z,97519.94
2022-08-27T03:52:06.805Z,97524.38
2022-08-27T03:55:09.452Z,97531.75
2022-08-27T03:58:12.234Z,97526.03
2022-08-27T04:01:14.413Z,97513.25
2022-08-27T04:04:16.455Z,97516.28
2022-08-27T04:07:19.331Z,97524.22
2022-08-27T04:10:21.613Z,97532.38
2022-08-27T04:13:23.989Z,97541.47
2022-08-27T04:16:27.203Z,97539.19
2022-08-27T04:19:32.515Z,97538.78
2022-08-27T04:22:36.075Z,97543.31
2022-08-27T04:25:42.872Z,97537.38
2022-08-27T04:28:48.730Z,97541.66
2022-08-27T04:31:51.609Z,97548.19
2022-08-27T04:34:55.198Z,97550.28
2022-08-27T04:37:57.716Z,97549.16
2022-08-27T04:41:21.669Z,97542.25
2022-08-27T04:44:24.846Z,97537.63
2022-08-27T04:47:26.819Z,97547.59
2022-08-27T04:50:29.477Z,97550.97
2022-08-27T04:53:32.068Z,97547.03
2022-08-27T04:56:34.933Z,97561.03
2022-08-27T04:59:39.822Z,97562.56
2022-08-27T05:02:41.649Z,97558.94
2022-08-27T05:05:44.649Z,97553.53
2022-08-27T05:08:49.170Z,97552.88
2022-08-27T05:11:52.357Z,97558.94
2022-08-27T05:14:54.916Z,97561.63
2022-08-27T05:18:00.976Z,97554.56
2022-08-27T05:21:03.685Z,97548.78
2022-08-27T05:24:07.556Z,97552.34
2022-08-27T05:27:10.033Z,97551.59
2022-08-27T05:30:15.202Z,97554.28
2022-08-27T05:33:21.567Z,97553.28
2022-08-27T05:36:30.534Z,97553.75
2022-08-27T05:39:33.037Z,97557.13
2022-08-27T05:42:36.303Z,97555.06
2022-08-27T05:45:56.697Z,97552.94
2022-08-27T05:49:00.557Z,97557.38
2022-08-27T05:52:02.844Z,97552.38
2022-08-27T05:55:05.235Z,97552.38
2022-08-27T05:58:08.383Z,97550.19
2022-08-27T06:01:10.617Z,97559.81
2022-08-27T06:04:17.504Z,97565.28
2022-08-27T06:07:20.216Z,97567.59
2022-08-27T06:10:22.149Z,97566.31
2022-08-27T06:13:24.707Z,97572.59
2022-08-27T06:16:26.859Z,97584.56
2022-08-27T06:19:29.216Z,97597.22
2022-08-27T06:22:31.125Z,97610.59
2022-08-27T06:25:33.922Z,97648.66
2022-08-27T06:28:36.016Z,97650.59
2022-08-27T06:31:38.717Z,97665.31
2022-08-27T06:34:43.098Z,97658.41
2022-08-27T06:37:45.671Z,97667.31
2022-08-27T06:40:47.620Z,97675.38
2022-08-27T06:43:50.077Z,97672.84
2022-08-27T06:46:52.339Z,97664.50
2022-08-27T06:49:54.616Z,97654.44
2022-08-27T06:52:56.833Z,97646.84
2022-08-27T06:55:58.811Z,97648.38
2022-08-27T06:59:03.742Z,97639.03
2022-08-27T07:02:08.281Z,97630.44
2022-08-27T07:05:11.747Z,97619.28
2022-08-27T07:08:13.840Z,97617.53
2022-08-27T07:11:16.352Z,97614.94
2022-08-27T07:14:18.593Z,97611.13
2022-08-27T07:17:20.870Z,97610.13
2022-08-27T07:20:25.801Z,97609.31
2022-08-27T07:23:28.845Z,97613.53
2022-08-27T07:26:33.422Z,97611.28
2022-08-27T07:29:35.807Z,97608.09
2022-08-27T07:32:38.615Z,97600.75
2022-08-27T07:35:41.097Z,97608.97
2022-08-27T07:38:43.328Z,97619.13
2022-08-27T07:42:05.106Z,97607.88
2022-08-27T07:45:08.101Z,97605.69
2022-08-27T07:48:10.814Z,97612.94
2022-08-27T07:51:15.480Z,97616.69
2022-08-27T07:54:18.229Z,97626.53
2022-08-27T07:57:20.781Z,97629.34
2022-08-27T08:00:23.413Z,97645.56
2022-08-27T08:03:25.748Z,97645.03
2022-08-27T08:06:29.879Z,97650.03
2022-08-27T08:09:33.471Z,97648.41
2022-08-27T08:12:37.164Z,97656.38
2022-08-27T08:15:39.675Z,97658.31
2022-08-27T08:18:41.794Z,97660.94
2022-08-27T08:21:44.069Z,97657.47
2022-08-27T08:24:46.335Z,97655.59
2022-08-27T08:27:48.604Z,97645.16
2022-08-27T08:30:52.448Z,97644.19
2022-08-27T08:33:55.271Z,97647.66
2022-08-27T08:36:57.867Z,97646.53
2022-08-27T08:39:59.914Z,97646.88
2022-08-27T08:43:03.801Z,97641.31
2022-08-27T08:46:11.754Z,97636.53
2022-08-27T08:49:42.886Z,97633.84
2022-08-27T08:52:55.382Z,97637.03
2022-08-27T08:56:01.954Z,97631.94
2022-08-27T08:59:11.350Z,97640.47
2022-08-27T09:02:14.856Z,97642.41
2022-08-27T09:05:17.150Z,97643.00
2022-08-27T09:08:42.059Z,97632.34
2022-08-27T09:12:12.046Z,97621.34
2022-08-27T09:15:17.625Z,97627.69
2022-08-27T09:18:20.483Z,97631.66
2022-08-27T09:21:46.384Z,97628.59
2022-08-27T09:24:56.413Z,97625.81
2022-08-27T09:28:33.875Z,97616.78
2022-08-27T09:31:38.921Z,97615.94
2022-08-27T09:34:43.383Z,97610.38
2022-08-27T09:37:48.534Z,97622.75
2022-08-27T09:40:52.087Z,97626.44
2022-08-27T09:44:19.133Z,97639.31
2022-08-27T09:47:21.366Z,97633.34
2022-08-27T09:50:30.377Z,97629.91
2022-08-27T09:53:34.461Z,97640.13
2022-08-27T09:56:38.815Z,97634.00
2022-08-27T09:59:43.929Z,97640.38
2022-08-27T10:02:53.109Z,97646.81
2022-08-27T10:05:55.403Z,97643.69
2022-08-27T10:09:07.237Z,97642.91
2022-08-27T10:12:32.902Z,97646.94
2022-08-27T10:15:47.747Z,97644.53
2022-08-27T10:19:20.070Z,97639.66
2022-08-27T10:22:32.905Z,97632.50
2022-08-27T10:25:58.752Z,97621.16
2022-08-27T10:29:14.407Z,97624.38
2022-08-27T10:32:36.257Z,97614.63
2022-08-27T10:35:54.736Z,97623.91
2022-08-27T10:39:25.012Z,97620.53
2022-08-27T10:42:28.161Z,97621.69
2022-08-27T10:46:04.118Z,97623.59
2022-08-27T10:49:13.570Z,97623.59
2022-08-27T10:52:30.063Z,97612.00
2022-08-27T10:55:43.032Z,97611.88
2022-08-27T10:59:11.092Z,97614.31
2022-08-27T11:02:13.467Z,97615.91
2022-08-27T11:05:23.946Z,97610.81
2022-08-27T11:08:33.974Z,97605.16
2022-08-27T11:15:26.529Z,97608.09
2022-08-27T11:18:57.691Z,97614.56
2022-08-27T11:22:12.220Z,97614.31
2022-08-27T11:25:19.535Z,97608.00
2022-08-27T11:28:29.921Z,97613.84
2022-08-27T11:31:39.012Z,97601.38
2022-08-27T11:34:50.372Z,97602.19
2022-08-27T11:38:11.484Z,97605.94
2022-08-27T11:41:23.625Z,97597.16
2022-08-27T11:44:27.147Z,97597.97
2022-08-27T11:47:29.326Z,97604.09
2022-08-27T11:50:31.599Z,97595.53
2022-08-27T11:53:52.266Z,97597.81
2022-08-27T11:56:55.766Z,97599.22
2022-08-27T12:00:22.921Z,97586.84
2022-08-27T12:03:35.588Z,97582.34
2022-08-27T12:06:43.800Z,97579.31
2022-08-27T12:09:58.499Z,97580.00
2022-08-27T12:13:05.051Z,97568.66
2022-08-27T12:16:29.917Z,97568.47
2022-08-27T12:19:54.219Z,97563.44
2022-08-27T12:23:27.775Z,97556.50
2022-08-27T12:26:39.352Z,97559.88
2022-08-27T12:29:49.841Z,97567.22
2022-08-27T12:32:52.934Z,97567.88
2022-08-27T12:35:56.887Z,97568.22
2022-08-27T12:39:00.409Z,97555.94
2022-08-27T12:42:03.298Z,97561.81
2022-08-27T12:45:06.512Z,97557.94
2022-08-27T12:48:12.350Z,97558.56
2022-08-27T12:51:27.525Z,97560.03
2022-08-27T12:55:24.627Z,97542.50
2022-08-27T12:58:35.721Z,97548.22
2022-08-27T13:01:47.522Z,97547.69
2022-08-27T13:04:49.830Z,97542.09
2022-08-27T13:07:56.402Z,97540.19
2022-08-27T13:11:15.469Z,97538.19
2022-08-27T13:14:22.440Z,97536.44
2022-08-27T13:17:24.804Z,97538.56
2022-08-27T13:20:28.669Z,97535.94
2022-08-27T13:23:31.406Z,97537.31
2022-08-27T13:26:37.513Z,97536.47
2022-08-27T13:29:40.700Z,97542.44
2022-08-27T13:32:43.767Z,97541.34
2022-08-27T13:35:47.532Z,97531.44
2022-08-27T13:38:50.665Z,97534.28
2022-08-27T13:41:53.391Z,97533.50
2022-08-27T13:45:02.083Z,97527.63
2022-08-27T13:48:05.292Z,97529.16
2022-08-27T13:51:09.351Z,97532.53
2022-08-27T13:54:16.232Z,97533.53
2022-08-27T13:57:30.614Z,97531.34
2022-08-27T14:00:34.295Z,97523.75
2022-08-27T14:03:45.659Z,97527.78
2022-08-27T14:06:50.987Z,97520.53
2022-08-27T14:09:55.234Z,97519.50
2022-08-27T14:13:06.485Z,97519.66
2022-08-27T14:16:30.188Z,97527.19
2022-08-27T14:19:36.688Z,97524.66
2022-08-27T14:22:41.133Z,97516.22
2022-08-27T14:25:44.711Z,97522.53
2022-08-27T14:28:47.479Z,97529.28
2022-08-27T14:31:49.967Z,97533.47
2022-08-27T14:34:53.498Z,97538.59
2022-08-27T14:37:56.486Z,97531.59
2022-08-27T14:41:00.570Z,97522.44
2022-08-27T14:44:04.352Z,97526.16
2022-08-27T14:47:09.505Z,97524.50
2022-08-27T14:50:13.317Z,97528.47
2022-08-27T14:53:15.478Z,97528.25
2022-08-27T14:56:18.023Z,97524.91
2022-08-27T14:59:21.058Z,97514.50
2022-08-27T15:02:23.963Z,97526.59
2022-08-27T15:05:26.930Z,97531.69
2022-08-27T15:08:32.049Z,97527.84
2022-08-27T15:11:36.933Z,97537.31
2022-08-27T15:14:39.724Z,97534.44
2022-08-27T15:17:42.104Z,97532.09
2022-08-27T15:20:44.614Z,97536.47
2022-08-27T15:23:48.883Z,97544.50
2022-08-27T15:26:52.685Z,97539.94
2022-08-27T15:29:54.556Z,97543.03
2022-08-27T15:32:56.834Z,97545.03
2022-08-27T15:36:03.401Z,97540.91
2022-08-27T15:39:06.350Z,97548.53
2022-08-27T15:42:08.917Z,97532.81
2022-08-27T15:45:13.773Z,97536.69
2022-08-27T15:48:15.748Z,97537.28
2022-08-27T15:51:18.567Z,97537.97
2022-08-27T15:54:20.536Z,97545.56
2022-08-27T15:57:22.779Z,97538.03
2022-08-27T16:00:25.262Z,97536.97
2022-08-27T16:03:35.702Z,97537.00
2022-08-27T16:06:38.987Z,97529.75
2022-08-27T16:09:41.250Z,97535.94
2022-08-27T16:12:43.185Z,97530.03
2022-08-27T16:15:45.787Z,97536.53
2022-08-27T16:18:47.924Z,97534.06
2022-08-27T16:21:51.250Z,97527.56
2022-08-27T16:24:53.129Z,97530.81
2022-08-27T16:27:55.249Z,97535.38
2022-08-27T16:30:57.778Z,97528.91
2022-08-27T16:34:00.266Z,97533.47
2022-08-27T16:37:02.225Z,97531.00
2022-08-27T16:40:04.528Z,97524.97
2022-08-27T16:43:06.799Z,97537.81
2022-08-27T16:46:08.995Z,97543.19
2022-08-27T16:49:30.012Z,97546.34
2022-08-27T16:52:31.905Z,97545.13
2022-08-27T16:55:34.175Z,97545.56
2022-08-27T16:58:36.406Z,97548.19
2022-08-27T17:01:39.172Z,97548.72
2022-08-27T17:04:42.132Z,97554.59
2022-08-27T17:07:47.858Z,97552.91
2022-08-27T17:10:54.857Z,97559.38
2022-08-27T17:14:02.641Z,97564.25
2022-08-27T17:17:06.558Z,97565.34
2022-08-27T17:20:09.122Z,97563.22
2022-08-27T17:23:30.420Z,97569.34
2022-08-27T17:26:33.156Z,97563.66
2022-08-27T17:29:35.282Z,97568.19
2022-08-27T17:32:41.112Z,97573.19
2022-08-27T17:35:42.979Z,97573.56
2022-08-27T17:38:45.803Z,97577.25
2022-08-27T17:41:52.576Z,97576.50
2022-08-27T17:44:54.560Z,97586.94
2022-08-27T17:47:58.827Z,97594.44
2022-08-27T17:51:00.807Z,97609.03
2022-08-27T17:54:04.469Z,97607.16
2022-08-27T17:57:19.186Z,97618.41
2022-08-27T18:00:21.448Z,97622.13
2022-08-27T18:03:24.207Z,97624.59
2022-08-27T18:06:28.045Z,97634.56
2022-08-27T18:09:30.136Z,97635.63
2022-08-27T18:12:32.685Z,97640.28
2022-08-27T18:15:39.278Z,97639.94
2022-08-27T18:18:41.867Z,97635.19
2022-08-27T18:21:46.833Z,97642.78
2022-08-27T18:24:49.409Z,97640.03
2022-08-27T18:27:56.822Z,97645.00
2022-08-27T18:30:59.048Z,97639.31
2022-08-27T18:34:08.747Z,97643.91
2022-08-27T18:37:10.889Z,97640.31
2022-08-27T18:40:15.047Z,97638.88
2022-08-27T18:43:18.364Z,97639.91
2022-08-27T18:46:21.623Z,97641.53
2022-08-27T18:49:25.967Z,97638.38
2022-08-27T18:52:28.044Z,97645.81
2022-08-27T18:55:36.441Z,97650.63
2022-08-27T18:58:39.040Z,97668.28
2022-08-27T19:01:41.026Z,97679.84
2022-08-27T19:04:43.686Z,97670.22
2022-08-27T19:07:45.794Z,97672.53
2022-08-27T19:10:47.905Z,97671.41
2022-08-27T19:13:51.055Z,97662.53
2022-08-27T19:16:56.953Z,97662.44
2022-08-27T19:19:59.774Z,97653.38
2022-08-27T19:23:02.254Z,97663.63
2022-08-27T19:26:05.942Z,97667.13
2022-08-27T19:29:08.774Z,97660.28
2022-08-27T19:32:11.498Z,97662.38
2022-08-27T19:35:15.223Z,97657.13
2022-08-27T19:38:19.286Z,97667.38
2022-08-27T19:41:26.058Z,97662.81
2022-08-27T19:44:29.881Z,97654.69
2022-08-27T19:47:33.178Z,97657.06
2022-08-27T19:50:36.170Z,97659.03
2022-08-27T19:53:38.971Z,97655.00
2022-08-27T19:56:43.767Z,97655.44
2022-08-27T19:59:46.481Z,97651.38
2022-08-27T20:02:50.759Z,97651.97
2022-08-27T20:05:53.510Z,97653.03
2022-08-27T20:08:56.246Z,97655.91
2022-08-27T20:12:00.042Z,97643.72
2022-08-27T20:15:02.240Z,97642.47
2022-08-27T20:18:11.625Z,97640.13
2022-08-27T20:21:14.462Z,97631.84
2022-08-27T20:24:21.937Z,97635.66
2022-08-27T20:27:24.336Z,97622.53
2022-08-27T20:30:28.166Z,97628.59
2022-08-27T20:33:33.162Z,97625.81
2022-08-27T20:36:35.887Z,97629.41
2022-08-27T20:39:38.822Z,97623.22
2022-08-27T20:42:40.978Z,97618.94
2022-08-27T20:45:43.664Z,97626.94
2022-08-27T20:48:45.838Z,97625.34
2022-08-27T20:52:02.099Z,97627.75
2022-08-27T20:55:06.007Z,97630.53
2022-08-27T20:58:26.663Z,97632.38
2022-08-27T21:01:28.956Z,97633.19
2022-08-27T21:04:40.149Z,97629.41
2022-08-27T21:07:42.543Z,97634.03
2022-08-27T21:10:46.710Z,97637.72
2022-08-27T21:13:56.275Z,97644.81
2022-08-27T21:17:01.552Z,97652.00
2022-08-27T21:20:07.480Z,97651.75
2022-08-27T21:23:09.715Z,97649.44
2022-08-27T21:26:13.910Z,97656.59
2022-08-27T21:29:20.014Z,97657.34
2022-08-27T21:32:22.144Z,97658.88
2022-08-27T21:35:28.931Z,97664.00
2022-08-27T21:38:30.999Z,97670.16
2022-08-27T21:41:37.216Z,97671.16
2022-08-27T21:44:39.952Z,97678.09
2022-08-27T21:47:42.415Z,97670.53
2022-08-27T21:50:44.237Z,97673.69
2022-08-27T21:53:47.199Z,97670.34
2022-08-27T21:56:49.125Z,97665.91
2022-08-27T21:59:52.165Z,97670.44
2022-08-27T22:02:55.233Z,97661.47
2022-08-27T22:05:57.089Z,97647.50
2022-08-27T22:08:59.355Z,97649.06
2022-08-27T22:12:01.824Z,97644.19
2022-08-27T22:15:04.976Z,97649.06
2022-08-27T22:18:07.602Z,97652.03
2022-08-27T22:21:09.456Z,97647.94
2022-08-27T22:24:13.015Z,97644.84
2022-08-27T22:27:14.940Z,97643.38
2022-08-27T22:30:18.107Z,97636.38
2022-08-27T22:33:22.589Z,97634.56
2022-08-27T22:36:24.693Z,97639.38
2022-08-27T22:39:26.764Z,97646.41
2022-08-27T22:42:28.766Z,97649.75
2022-08-27T22:45:31.084Z,97649.22
2022-08-27T22:48:33.162Z,97662.63
2022-08-27T22:51:35.197Z,97667.47
2022-08-27T22:54:37.310Z,97671.88
2022-08-27T22:57:40.116Z,97660.31
2022-08-27T23:00:42.747Z,97665.19
2022-08-27T23:03:45.040Z,97666.31
2022-08-27T23:06:47.058Z,97670.97
2022-08-27T23:09:51.509Z,97674.09
2022-08-27T23:12:54.983Z,97668.03
2022-08-27T23:15:57.418Z,97664.75
2022-08-27T23:18:59.433Z,97663.34
2022-08-27T23:22:01.453Z,97660.25
2022-08-27T23:25:32.246Z,97653.28
2022-08-27T23:28:34.977Z,97655.13
2022-08-27T23:31:37.967Z,97659.00
2022-08-27T23:34:40.209Z,97655.53
2022-08-27T23:37:42.305Z,97656.41
2022-08-27T23:40:45.638Z,97665.09
2022-08-27T23:43:47.486Z,97664.00
2022-08-27T23:46:49.452Z,97661.16
2022-08-27T23:49:52.838Z,97660.97
2022-08-27T23:52:54.766Z,97677.75
2022-08-27T23:55:57.578Z,97685.53
2022-08-27T23:59:00.092Z,97692.22
